This is the latest recevied weather packets stored in our database for station/object XW7RMR. If no packets are shown the sender has not sent any weather packets the latest 1 day(s).
| Time | Temp. | Humidity | Pressure | Rain* | Wind** | Luminosity | Snow |
|---|---|---|---|---|---|---|---|
| 1778019659 | 17.22° C | 70% | 1014.9 hPa | 0 mm | 0 m/s | 401 W/m² | - |
| 1778019357 | 18.33° C | 67% | 1015 hPa | 0 mm | 0 m/s | 391 W/m² | - |
| 1778019053 | 18.33° C | 66% | 1014.9 hPa | 0 mm | 0 m/s | 367 W/m² | - |
| 1778018750 | 17.22° C | 68% | 1015 hPa | 0 mm | 0 m/s | 359 W/m² | - |
| 1778018448 | 18.33° C | 65% | 1014.9 hPa | 0 mm | 0 m/s | 375 W/m² | - |
| 1778018146 | 17.78° C | 67% | 1015 hPa | 0 mm | 0.45 m/s, 196° | 370 W/m² | - |
| 1778017844 | 17.22° C | 69% | 1015.1 hPa | 0 mm | 1.34 m/s, 353° | 385 W/m² | - |
| 1778017541 | 17.78° C | 67% | 1015.2 hPa | 0 mm | 1.34 m/s, 16° | 299 W/m² | - |
| 1778017238 | 17.78° C | 67% | 1015.1 hPa | 0 mm | 0.89 m/s, 237° | 369 W/m² | - |
| 1778016936 | 17.78° C | 67% | 1015.2 hPa | 0 mm | 0.45 m/s, 41° | 326 W/m² | - |
| 1778016632 | 17.78° C | 67% | 1015.2 hPa | 0 mm | 0.45 m/s, 54° | 362 W/m² | - |
| 1778016328 | 16.67° C | 70% | 1015.2 hPa | 0 mm | 0.89 m/s, 17° | 400 W/m² | - |
| 1778016026 | 16.67° C | 69% | 1015.1 hPa | 0 mm | 0.45 m/s, 26° | 450 W/m² | - |
| 1778015723 | 16.67° C | 69% | 1015.3 hPa | 0 mm | 0 m/s | 456 W/m² | - |
| 1778015419 | 17.22° C | 68% | 1015.4 hPa | 0 mm | 0 m/s | 394 W/m² | - |
| 1778015116 | 16.67° C | 70% | 1015.3 hPa | 0 mm | 0.89 m/s, 260° | 341 W/m² | - |
| 1778014813 | 16.11° C | 73% | 1015.4 hPa | 0 mm | 0 m/s | 297 W/m² | - |
| 1778014511 | 16.11° C | 73% | 1015.5 hPa | 0 mm | 1.79 m/s, 276° | 263 W/m² | - |
| 1778014208 | 16.11° C | 72% | 1015.5 hPa | 0 mm | 0.89 m/s, 358° | 261 W/m² | - |
| 1778013906 | 16.67° C | 71% | 1015.3 hPa | 0 mm | 0 m/s | 251 W/m² | - |
| 1778013603 | 16.11° C | 72% | 1015.4 hPa | 0 mm | 0.45 m/s, 16° | 224 W/m² | - |
| 1778013299 | 16.11° C | 72% | 1015.4 hPa | 0 mm | 0.45 m/s, 12° | 202 W/m² | - |
| 1778012995 | 16.11° C | 73% | 1015.6 hPa | 0 mm | 0.45 m/s, 16° | 187 W/m² | - |
| 1778012693 | 15.56° C | 74% | 1015.7 hPa | 0 mm | 0.89 m/s, 37° | 168 W/m² | - |
| 1778012388 | 16.11° C | 73% | 1015.6 hPa | 0 mm | 0 m/s | 161 W/m² | - |
* Rain latest hour (hover to see other rain measurements)
** Current wind speed in m/s (hover to see current wind gust speed)